sensor_id;sensor_type;location;lat;lon;timestamp;P1;durP1;ratioP1;P2;durP2;ratioP2
54959;SDS011;40860;51.710;8.736;2022-08-19T00:02:40;9.32;;;6.93;;
54959;SDS011;40860;51.710;8.736;2022-08-19T00:06:50;8.90;;;6.68;;
54959;SDS011;40860;51.710;8.736;2022-08-19T00:10:55;9.45;;;7.35;;
54959;SDS011;40860;51.710;8.736;2022-08-19T00:14:58;8.02;;;6.90;;
54959;SDS011;40860;51.710;8.736;2022-08-19T00:19:01;8.52;;;6.70;;
54959;SDS011;40860;51.710;8.736;2022-08-19T00:23:05;10.88;;;7.22;;
54959;SDS011;40860;51.710;8.736;2022-08-19T00:27:09;10.02;;;6.47;;
54959;SDS011;40860;51.710;8.736;2022-08-19T00:31:26;7.93;;;7.10;;
54959;SDS011;40860;51.710;8.736;2022-08-19T00:35:29;11.10;;;7.20;;
54959;SDS011;40860;51.710;8.736;2022-08-19T00:39:33;8.40;;;7.30;;
54959;SDS011;40860;51.710;8.736;2022-08-19T00:43:37;11.90;;;7.88;;
54959;SDS011;40860;51.710;8.736;2022-08-19T00:47:41;8.30;;;7.05;;
54959;SDS011;40860;51.710;8.736;2022-08-19T00:51:45;8.65;;;7.75;;
54959;SDS011;40860;51.710;8.736;2022-08-19T00:55:52;9.90;;;8.25;;
54959;SDS011;40860;51.710;8.736;2022-08-19T00:59:59;10.77;;;8.43;;
54959;SDS011;40860;51.710;8.736;2022-08-19T01:04:03;11.02;;;7.70;;
54959;SDS011;40860;51.710;8.736;2022-08-19T01:08:06;11.18;;;9.00;;
54959;SDS011;40860;51.710;8.736;2022-08-19T01:12:10;11.77;;;8.70;;
54959;SDS011;40860;51.710;8.736;2022-08-19T01:16:14;11.02;;;9.88;;
54959;SDS011;40860;51.710;8.736;2022-08-19T01:20:21;11.52;;;9.98;;
54959;SDS011;40860;51.710;8.736;2022-08-19T01:24:27;10.55;;;9.55;;
54959;SDS011;40860;51.710;8.736;2022-08-19T01:28:31;12.55;;;9.07;;
54959;SDS011;40860;51.710;8.736;2022-08-19T01:32:42;12.38;;;9.55;;
54959;SDS011;40860;51.710;8.736;2022-08-19T01:36:46;12.98;;;9.75;;
54959;SDS011;40860;51.710;8.736;2022-08-19T01:40:51;11.52;;;9.90;;
54959;SDS011;40860;51.710;8.736;2022-08-19T01:44:55;10.48;;;9.35;;
54959;SDS011;40860;51.710;8.736;2022-08-19T01:48:58;13.35;;;10.90;;
54959;SDS011;40860;51.710;8.736;2022-08-19T01:53:02;11.88;;;10.75;;
54959;SDS011;40860;51.710;8.736;2022-08-19T01:57:10;15.27;;;11.50;;
54959;SDS011;40860;51.710;8.736;2022-08-19T02:01:16;13.38;;;10.52;;
54959;SDS011;40860;51.710;8.736;2022-08-19T02:05:20;11.95;;;10.75;;
54959;SDS011;40860;51.710;8.736;2022-08-19T02:09:22;11.93;;;10.63;;
54959;SDS011;40860;51.710;8.736;2022-08-19T02:13:27;14.13;;;11.23;;
54959;SDS011;40860;51.710;8.736;2022-08-19T02:17:30;16.77;;;12.00;;
54959;SDS011;40860;51.710;8.736;2022-08-19T02:21:33;14.55;;;12.18;;
54959;SDS011;40860;51.710;8.736;2022-08-19T02:25:36;15.50;;;12.82;;
54959;SDS011;40860;51.710;8.736;2022-08-19T02:29:41;14.82;;;13.18;;
54959;SDS011;40860;51.710;8.736;2022-08-19T02:33:44;15.68;;;13.30;;
54959;SDS011;40860;51.710;8.736;2022-08-19T02:37:48;14.25;;;12.75;;
54959;SDS011;40860;51.710;8.736;2022-08-19T02:42:08;19.50;;;14.50;;
54959;SDS011;40860;51.710;8.736;2022-08-19T02:46:14;17.77;;;15.50;;
54959;SDS011;40860;51.710;8.736;2022-08-19T02:50:21;17.77;;;14.98;;
54959;SDS011;40860;51.710;8.736;2022-08-19T02:54:24;17.40;;;15.30;;
54959;SDS011;40860;51.710;8.736;2022-08-19T02:58:28;16.95;;;15.25;;
54959;SDS011;40860;51.710;8.736;2022-08-19T03:02:32;17.88;;;15.30;;
54959;SDS011;40860;51.710;8.736;2022-08-19T03:06:35;17.13;;;14.25;;
54959;SDS011;40860;51.710;8.736;2022-08-19T03:10:40;17.52;;;14.75;;
54959;SDS011;40860;51.710;8.736;2022-08-19T03:14:45;19.30;;;15.90;;
54959;SDS011;40860;51.710;8.736;2022-08-19T03:18:50;18.63;;;16.73;;
54959;SDS011;40860;51.710;8.736;2022-08-19T03:22:54;19.75;;;17.35;;
54959;SDS011;40860;51.710;8.736;2022-08-19T03:26:57;19.95;;;17.85;;
54959;SDS011;40860;51.710;8.736;2022-08-19T03:31:01;20.65;;;17.42;;
54959;SDS011;40860;51.710;8.736;2022-08-19T03:35:28;23.33;;;17.95;;
54959;SDS011;40860;51.710;8.736;2022-08-19T03:39:31;18.65;;;16.67;;
54959;SDS011;40860;51.710;8.736;2022-08-19T03:43:35;19.20;;;17.00;;
54959;SDS011;40860;51.710;8.736;2022-08-19T03:47:39;22.98;;;18.58;;
54959;SDS011;40860;51.710;8.736;2022-08-19T03:51:44;20.65;;;18.00;;
54959;SDS011;40860;51.710;8.736;2022-08-19T03:55:48;20.63;;;18.42;;
54959;SDS011;40860;51.710;8.736;2022-08-19T03:59:51;21.77;;;17.25;;
54959;SDS011;40860;51.710;8.736;2022-08-19T04:03:54;22.08;;;18.13;;
54959;SDS011;40860;51.710;8.736;2022-08-19T04:08:01;21.30;;;18.02;;
54959;SDS011;40860;51.710;8.736;2022-08-19T04:12:04;22.95;;;18.73;;
54959;SDS011;40860;51.710;8.736;2022-08-19T04:16:08;22.35;;;19.05;;
54959;SDS011;40860;51.710;8.736;2022-08-19T04:20:11;20.75;;;18.23;;
54959;SDS011;40860;51.710;8.736;2022-08-19T04:24:15;28.25;;;20.45;;
54959;SDS011;40860;51.710;8.736;2022-08-19T04:28:18;22.63;;;19.52;;
54959;SDS011;40860;51.710;8.736;2022-08-19T04:32:21;25.90;;;20.50;;
54959;SDS011;40860;51.710;8.736;2022-08-19T04:36:25;27.33;;;20.25;;
54959;SDS011;40860;51.710;8.736;2022-08-19T04:40:30;25.75;;;20.77;;
54959;SDS011;40860;51.710;8.736;2022-08-19T04:44:51;25.27;;;19.88;;
54959;SDS011;40860;51.710;8.736;2022-08-19T04:48:57;23.63;;;20.63;;
54959;SDS011;40860;51.710;8.736;2022-08-19T04:53:10;26.45;;;21.70;;
54959;SDS011;40860;51.710;8.736;2022-08-19T04:57:15;25.48;;;21.58;;
54959;SDS011;40860;51.710;8.736;2022-08-19T05:01:19;24.98;;;20.88;;
54959;SDS011;40860;51.710;8.736;2022-08-19T05:05:24;30.60;;;21.00;;
54959;SDS011;40860;51.710;8.736;2022-08-19T05:09:27;28.98;;;22.40;;
54959;SDS011;40860;51.710;8.736;2022-08-19T05:13:51;27.13;;;20.67;;
54959;SDS011;40860;51.710;8.736;2022-08-19T05:17:54;25.85;;;21.42;;
54959;SDS011;40860;51.710;8.736;2022-08-19T05:22:14;24.92;;;20.88;;
54959;SDS011;40860;51.710;8.736;2022-08-19T05:26:35;29.40;;;20.48;;
54959;SDS011;40860;51.710;8.736;2022-08-19T05:30:40;28.60;;;21.55;;
54959;SDS011;40860;51.710;8.736;2022-08-19T05:34:47;29.75;;;21.52;;
54959;SDS011;40860;51.710;8.736;2022-08-19T05:38:50;22.60;;;20.13;;
54959;SDS011;40860;51.710;8.736;2022-08-19T05:42:54;24.45;;;20.13;;
54959;SDS011;40860;51.710;8.736;2022-08-19T05:46:58;21.10;;;18.90;;
54959;SDS011;40860;51.710;8.736;2022-08-19T05:51:03;24.38;;;20.02;;
54959;SDS011;40860;51.710;8.736;2022-08-19T05:55:07;25.00;;;19.30;;
54959;SDS011;40860;51.710;8.736;2022-08-19T05:59:10;25.40;;;20.08;;
54959;SDS011;40860;51.710;8.736;2022-08-19T06:03:15;23.45;;;20.63;;
54959;SDS011;40860;51.710;8.736;2022-08-19T06:07:18;25.55;;;20.52;;
54959;SDS011;40860;51.710;8.736;2022-08-19T06:11:22;23.67;;;20.23;;
54959;SDS011;40860;51.710;8.736;2022-08-19T06:15:26;23.90;;;20.45;;
54959;SDS011;40860;51.710;8.736;2022-08-19T06:19:31;26.33;;;19.50;;
54959;SDS011;40860;51.710;8.736;2022-08-19T06:23:33;22.85;;;19.80;;
54959;SDS011;40860;51.710;8.736;2022-08-19T06:27:37;24.20;;;19.45;;
54959;SDS011;40860;51.710;8.736;2022-08-19T06:32:00;25.27;;;19.52;;
54959;SDS011;40860;51.710;8.736;2022-08-19T06:36:07;21.70;;;19.08;;
54959;SDS011;40860;51.710;8.736;2022-08-19T06:40:17;24.73;;;20.58;;
54959;SDS011;40860;51.710;8.736;2022-08-19T06:44:22;23.60;;;20.30;;
54959;SDS011;40860;51.710;8.736;2022-08-19T06:48:32;24.40;;;18.58;;
54959;SDS011;40860;51.710;8.736;2022-08-19T06:52:47;21.08;;;18.75;;
54959;SDS011;40860;51.710;8.736;2022-08-19T06:56:51;22.17;;;19.40;;
54959;SDS011;40860;51.710;8.736;2022-08-19T07:00:54;20.95;;;18.67;;
54959;SDS011;40860;51.710;8.736;2022-08-19T07:04:58;22.75;;;19.02;;
54959;SDS011;40860;51.710;8.736;2022-08-19T07:09:09;22.92;;;19.85;;
54959;SDS011;40860;51.710;8.736;2022-08-19T07:13:13;23.15;;;20.45;;
54959;SDS011;40860;51.710;8.736;2022-08-19T07:17:16;23.30;;;20.40;;
54959;SDS011;40860;51.710;8.736;2022-08-19T07:21:22;26.08;;;19.85;;
54959;SDS011;40860;51.710;8.736;2022-08-19T07:25:31;22.88;;;20.50;;
54959;SDS011;40860;51.710;8.736;2022-08-19T07:29:34;21.10;;;18.90;;
54959;SDS011;40860;51.710;8.736;2022-08-19T07:33:38;21.33;;;19.10;;
54959;SDS011;40860;51.710;8.736;2022-08-19T07:37:43;22.52;;;19.42;;
54959;SDS011;40860;51.710;8.736;2022-08-19T07:41:47;26.20;;;19.80;;
54959;SDS011;40860;51.710;8.736;2022-08-19T07:45:51;20.77;;;18.42;;
54959;SDS011;40860;51.710;8.736;2022-08-19T07:49:57;21.48;;;18.08;;
54959;SDS011;40860;51.710;8.736;2022-08-19T07:54:00;20.63;;;17.17;;
54959;SDS011;40860;51.710;8.736;2022-08-19T07:58:04;19.08;;;15.38;;
54959;SDS011;40860;51.710;8.736;2022-08-19T08:02:07;17.95;;;16.00;;
54959;SDS011;40860;51.710;8.736;2022-08-19T08:06:11;19.65;;;15.48;;
54959;SDS011;40860;51.710;8.736;2022-08-19T08:10:32;20.98;;;14.52;;
54959;SDS011;40860;51.710;8.736;2022-08-19T08:14:38;18.10;;;12.90;;
54959;SDS011;40860;51.710;8.736;2022-08-19T08:18:44;13.23;;;11.68;;
54959;SDS011;40860;51.710;8.736;2022-08-19T08:22:53;15.30;;;11.68;;
54959;SDS011;40860;51.710;8.736;2022-08-19T08:27:13;16.52;;;11.77;;
54959;SDS011;40860;51.710;8.736;2022-08-19T08:31:19;11.90;;;10.73;;
54959;SDS011;40860;51.710;8.736;2022-08-19T08:35:22;14.68;;;8.73;;
54959;SDS011;40860;51.710;8.736;2022-08-19T08:39:26;11.25;;;8.95;;
54959;SDS011;40860;51.710;8.736;2022-08-19T08:43:30;9.20;;;8.30;;
54959;SDS011;40860;51.710;8.736;2022-08-19T08:47:37;9.25;;;8.35;;
54959;SDS011;40860;51.710;8.736;2022-08-19T08:51:45;9.00;;;7.35;;
54959;SDS011;40860;51.710;8.736;2022-08-19T08:56:00;9.02;;;7.80;;
54959;SDS011;40860;51.710;8.736;2022-08-19T09:00:09;10.40;;;8.15;;
54959;SDS011;40860;51.710;8.736;2022-08-19T09:04:19;9.02;;;8.13;;
54959;SDS011;40860;51.710;8.736;2022-08-19T09:08:26;10.88;;;8.52;;
54959;SDS011;40860;51.710;8.736;2022-08-19T09:12:41;10.63;;;8.43;;
54959;SDS011;40860;51.710;8.736;2022-08-19T09:16:54;9.57;;;7.63;;
54959;SDS011;40860;51.710;8.736;2022-08-19T09:20:59;7.60;;;6.90;;
54959;SDS011;40860;51.710;8.736;2022-08-19T09:25:02;9.73;;;6.15;;
54959;SDS011;40860;51.710;8.736;2022-08-19T09:29:06;10.02;;;7.38;;
54959;SDS011;40860;51.710;8.736;2022-08-19T09:33:10;7.20;;;6.50;;
54959;SDS011;40860;51.710;8.736;2022-08-19T09:37:14;6.63;;;6.03;;
54959;SDS011;40860;51.710;8.736;2022-08-19T09:41:18;6.18;;;5.25;;
54959;SDS011;40860;51.710;8.736;2022-08-19T09:45:23;8.07;;;6.13;;
54959;SDS011;40860;51.710;8.736;2022-08-19T09:49:26;6.38;;;5.75;;
54959;SDS011;40860;51.710;8.736;2022-08-19T09:53:31;6.55;;;5.90;;
54959;SDS011;40860;51.710;8.736;2022-08-19T09:57:38;9.98;;;6.03;;
54959;SDS011;40860;51.710;8.736;2022-08-19T10:01:41;6.78;;;5.50;;
54959;SDS011;40860;51.710;8.736;2022-08-19T10:05:46;6.75;;;6.05;;
54959;SDS011;40860;51.710;8.736;2022-08-19T10:09:57;5.72;;;5.22;;
54959;SDS011;40860;51.710;8.736;2022-08-19T10:13:59;6.72;;;5.90;;
54959;SDS011;40860;51.710;8.736;2022-08-19T10:18:03;6.18;;;5.60;;
54959;SDS011;40860;51.710;8.736;2022-08-19T10:22:06;5.60;;;5.15;;
54959;SDS011;40860;51.710;8.736;2022-08-19T10:26:14;6.00;;;5.50;;
54959;SDS011;40860;51.710;8.736;2022-08-19T10:30:19;10.35;;;5.13;;
54959;SDS011;40860;51.710;8.736;2022-08-19T10:34:25;5.35;;;4.70;;
54959;SDS011;40860;51.710;8.736;2022-08-19T10:38:30;6.25;;;5.10;;
54959;SDS011;40860;51.710;8.736;2022-08-19T10:42:36;5.00;;;4.60;;
54959;SDS011;40860;51.710;8.736;2022-08-19T10:46:40;8.65;;;5.20;;
54959;SDS011;40860;51.710;8.736;2022-08-19T10:50:50;6.38;;;5.25;;
54959;SDS011;40860;51.710;8.736;2022-08-19T10:55:23;8.25;;;5.90;;
54959;SDS011;40860;51.710;8.736;2022-08-19T10:59:45;14.18;;;5.70;;
54959;SDS011;40860;51.710;8.736;2022-08-19T11:03:49;5.05;;;4.50;;
54959;SDS011;40860;51.710;8.736;2022-08-19T11:07:52;7.47;;;4.97;;
54959;SDS011;40860;51.710;8.736;2022-08-19T11:11:55;5.78;;;5.03;;
54959;SDS011;40860;51.710;8.736;2022-08-19T11:16:05;4.53;;;4.13;;
54959;SDS011;40860;51.710;8.736;2022-08-19T11:20:11;4.93;;;4.05;;
54959;SDS011;40860;51.710;8.736;2022-08-19T11:24:16;5.38;;;4.30;;
54959;SDS011;40860;51.710;8.736;2022-08-19T11:28:21;5.50;;;4.50;;
54959;SDS011;40860;51.710;8.736;2022-08-19T11:32:25;5.15;;;4.28;;
54959;SDS011;40860;51.710;8.736;2022-08-19T11:36:28;5.00;;;4.30;;
54959;SDS011;40860;51.710;8.736;2022-08-19T11:40:32;4.18;;;3.58;;
54959;SDS011;40860;51.710;8.736;2022-08-19T11:44:35;5.10;;;4.00;;
54959;SDS011;40860;51.710;8.736;2022-08-19T11:48:39;4.47;;;3.90;;
54959;SDS011;40860;51.710;8.736;2022-08-19T11:52:42;5.93;;;2.90;;
54959;SDS011;40860;51.710;8.736;2022-08-19T11:56:46;4.13;;;2.90;;
54959;SDS011;40860;51.710;8.736;2022-08-19T12:00:50;3.65;;;3.20;;
54959;SDS011;40860;51.710;8.736;2022-08-19T12:04:55;3.55;;;2.95;;
54959;SDS011;40860;51.710;8.736;2022-08-19T12:08:59;4.30;;;2.88;;
54959;SDS011;40860;51.710;8.736;2022-08-19T12:13:05;3.28;;;2.80;;
54959;SDS011;40860;51.710;8.736;2022-08-19T12:17:08;4.45;;;2.35;;
54959;SDS011;40860;51.710;8.736;2022-08-19T12:21:15;4.05;;;2.25;;
54959;SDS011;40860;51.710;8.736;2022-08-19T12:25:22;4.35;;;2.55;;
54959;SDS011;40860;51.710;8.736;2022-08-19T12:29:25;2.42;;;2.22;;
54959;SDS011;40860;51.710;8.736;2022-08-19T12:33:30;2.70;;;2.45;;
54959;SDS011;40860;51.710;8.736;2022-08-19T12:37:34;2.45;;;2.22;;
54959;SDS011;40860;51.710;8.736;2022-08-19T12:41:38;3.40;;;2.88;;
54959;SDS011;40860;51.710;8.736;2022-08-19T12:45:54;3.15;;;2.72;;
54959;SDS011;40860;51.710;8.736;2022-08-19T12:49:57;3.22;;;3.00;;
54959;SDS011;40860;51.710;8.736;2022-08-19T12:54:01;3.03;;;2.60;;
54959;SDS011;40860;51.710;8.736;2022-08-19T12:58:04;4.15;;;2.83;;
54959;SDS011;40860;51.710;8.736;2022-08-19T13:02:07;3.88;;;3.33;;
54959;SDS011;40860;51.710;8.736;2022-08-19T13:06:10;3.67;;;2.90;;
54959;SDS011;40860;51.710;8.736;2022-08-19T13:10:20;4.10;;;3.75;;
54959;SDS011;40860;51.710;8.736;2022-08-19T13:14:24;4.80;;;3.30;;
54959;SDS011;40860;51.710;8.736;2022-08-19T13:18:27;3.40;;;3.10;;
54959;SDS011;40860;51.710;8.736;2022-08-19T13:22:30;3.28;;;2.97;;
54959;SDS011;40860;51.710;8.736;2022-08-19T13:26:34;3.30;;;3.03;;
54959;SDS011;40860;51.710;8.736;2022-08-19T13:30:37;3.70;;;3.40;;
54959;SDS011;40860;51.710;8.736;2022-08-19T13:34:57;3.85;;;3.20;;
54959;SDS011;40860;51.710;8.736;2022-08-19T13:39:00;3.45;;;3.00;;
54959;SDS011;40860;51.710;8.736;2022-08-19T13:43:04;4.00;;;3.28;;
54959;SDS011;40860;51.710;8.736;2022-08-19T13:47:23;3.90;;;3.05;;
54959;SDS011;40860;51.710;8.736;2022-08-19T13:51:26;15.20;;;3.53;;
54959;SDS011;40860;51.710;8.736;2022-08-19T13:55:29;4.25;;;3.55;;
54959;SDS011;40860;51.710;8.736;2022-08-19T13:59:33;3.60;;;3.20;;
54959;SDS011;40860;51.710;8.736;2022-08-19T14:03:37;3.72;;;3.10;;
54959;SDS011;40860;51.710;8.736;2022-08-19T14:07:40;6.78;;;3.75;;
54959;SDS011;40860;51.710;8.736;2022-08-19T14:11:43;7.70;;;4.20;;
54959;SDS011;40860;51.710;8.736;2022-08-19T14:15:49;5.85;;;3.60;;
54959;SDS011;40860;51.710;8.736;2022-08-19T14:19:55;4.90;;;3.15;;
54959;SDS011;40860;51.710;8.736;2022-08-19T14:24:03;19.90;;;3.85;;
54959;SDS011;40860;51.710;8.736;2022-08-19T14:28:06;3.40;;;3.20;;
54959;SDS011;40860;51.710;8.736;2022-08-19T14:32:12;3.65;;;2.90;;
54959;SDS011;40860;51.710;8.736;2022-08-19T14:36:17;3.55;;;3.25;;
54959;SDS011;40860;51.710;8.736;2022-08-19T14:40:21;3.75;;;3.10;;
54959;SDS011;40860;51.710;8.736;2022-08-19T14:44:27;3.50;;;3.20;;
54959;SDS011;40860;51.710;8.736;2022-08-19T14:48:36;3.50;;;3.10;;
54959;SDS011;40860;51.710;8.736;2022-08-19T14:52:41;3.15;;;2.92;;
54959;SDS011;40860;51.710;8.736;2022-08-19T14:56:44;4.20;;;2.90;;
54959;SDS011;40860;51.710;8.736;2022-08-19T15:00:47;3.33;;;3.03;;
54959;SDS011;40860;51.710;8.736;2022-08-19T15:04:51;3.30;;;3.00;;
54959;SDS011;40860;51.710;8.736;2022-08-19T15:08:59;3.38;;;3.10;;
54959;SDS011;40860;51.710;8.736;2022-08-19T15:13:04;3.67;;;3.03;;
54959;SDS011;40860;51.710;8.736;2022-08-19T15:17:08;5.05;;;3.40;;
54959;SDS011;40860;51.710;8.736;2022-08-19T15:21:12;4.57;;;3.70;;
54959;SDS011;40860;51.710;8.736;2022-08-19T15:25:27;4.80;;;3.55;;
54959;SDS011;40860;51.710;8.736;2022-08-19T15:29:30;5.97;;;3.85;;
54959;SDS011;40860;51.710;8.736;2022-08-19T15:33:33;3.70;;;3.40;;
54959;SDS011;40860;51.710;8.736;2022-08-19T15:37:39;5.50;;;3.17;;
54959;SDS011;40860;51.710;8.736;2022-08-19T15:41:42;3.50;;;3.20;;
54959;SDS011;40860;51.710;8.736;2022-08-19T15:45:46;3.25;;;3.00;;
54959;SDS011;40860;51.710;8.736;2022-08-19T15:49:49;3.50;;;3.20;;
54959;SDS011;40860;51.710;8.736;2022-08-19T15:54:00;3.45;;;3.15;;
54959;SDS011;40860;51.710;8.736;2022-08-19T15:58:05;4.50;;;3.10;;
54959;SDS011;40860;51.710;8.736;2022-08-19T16:02:29;3.83;;;3.50;;
54959;SDS011;40860;51.710;8.736;2022-08-19T16:06:54;3.53;;;3.22;;
54959;SDS011;40860;51.710;8.736;2022-08-19T16:10:59;3.60;;;3.30;;
54959;SDS011;40860;51.710;8.736;2022-08-19T16:15:03;5.85;;;3.30;;
54959;SDS011;40860;51.710;8.736;2022-08-19T16:19:07;4.78;;;3.10;;
54959;SDS011;40860;51.710;8.736;2022-08-19T16:23:12;5.13;;;3.10;;
54959;SDS011;40860;51.710;8.736;2022-08-19T16:27:16;3.63;;;3.33;;
54959;SDS011;40860;51.710;8.736;2022-08-19T16:31:19;3.78;;;3.47;;
54959;SDS011;40860;51.710;8.736;2022-08-19T16:35:22;3.67;;;3.38;;
54959;SDS011;40860;51.710;8.736;2022-08-19T16:39:25;5.07;;;2.92;;
54959;SDS011;40860;51.710;8.736;2022-08-19T16:43:29;3.90;;;3.60;;
54959;SDS011;40860;51.710;8.736;2022-08-19T16:47:32;3.90;;;3.60;;
54959;SDS011;40860;51.710;8.736;2022-08-19T16:51:35;3.78;;;3.40;;
54959;SDS011;40860;51.710;8.736;2022-08-19T16:55:39;3.85;;;3.45;;
54959;SDS011;40860;51.710;8.736;2022-08-19T16:59:43;3.53;;;3.30;;
54959;SDS011;40860;51.710;8.736;2022-08-19T17:03:49;4.00;;;3.70;;
54959;SDS011;40860;51.710;8.736;2022-08-19T17:07:53;4.10;;;3.60;;
54959;SDS011;40860;51.710;8.736;2022-08-19T17:11:56;3.90;;;3.40;;
54959;SDS011;40860;51.710;8.736;2022-08-19T17:16:00;3.97;;;3.67;;
54959;SDS011;40860;51.710;8.736;2022-08-19T17:20:03;3.85;;;3.42;;
54959;SDS011;40860;51.710;8.736;2022-08-19T17:24:08;4.22;;;3.72;;
54959;SDS011;40860;51.710;8.736;2022-08-19T17:28:11;3.92;;;3.60;;
54959;SDS011;40860;51.710;8.736;2022-08-19T17:32:17;4.25;;;3.95;;
54959;SDS011;40860;51.710;8.736;2022-08-19T17:36:27;5.65;;;4.15;;
54959;SDS011;40860;51.710;8.736;2022-08-19T17:40:31;7.18;;;4.70;;
54959;SDS011;40860;51.710;8.736;2022-08-19T17:44:36;5.18;;;4.55;;
54959;SDS011;40860;51.710;8.736;2022-08-19T17:48:42;6.45;;;4.57;;
54959;SDS011;40860;51.710;8.736;2022-08-19T17:52:51;4.28;;;3.83;;
54959;SDS011;40860;51.710;8.736;2022-08-19T17:56:54;6.07;;;4.25;;
54959;SDS011;40860;51.710;8.736;2022-08-19T18:00:57;4.47;;;4.07;;
54959;SDS011;40860;51.710;8.736;2022-08-19T18:05:04;4.18;;;3.88;;
54959;SDS011;40860;51.710;8.736;2022-08-19T18:09:07;4.78;;;4.28;;
54959;SDS011;40860;51.710;8.736;2022-08-19T18:13:10;5.15;;;4.75;;
54959;SDS011;40860;51.710;8.736;2022-08-19T18:17:18;5.93;;;4.80;;
54959;SDS011;40860;51.710;8.736;2022-08-19T18:21:24;5.45;;;4.95;;
54959;SDS011;40860;51.710;8.736;2022-08-19T18:25:31;6.85;;;5.22;;
54959;SDS011;40860;51.710;8.736;2022-08-19T18:29:34;6.05;;;5.55;;
54959;SDS011;40860;51.710;8.736;2022-08-19T18:33:38;7.22;;;5.50;;
54959;SDS011;40860;51.710;8.736;2022-08-19T18:37:46;6.03;;;5.40;;
54959;SDS011;40860;51.710;8.736;2022-08-19T18:41:49;6.00;;;5.40;;
54959;SDS011;40860;51.710;8.736;2022-08-19T18:46:10;6.25;;;5.65;;
54959;SDS011;40860;51.710;8.736;2022-08-19T18:50:37;6.45;;;5.38;;
54959;SDS011;40860;51.710;8.736;2022-08-19T18:54:44;7.15;;;5.53;;
54959;SDS011;40860;51.710;8.736;2022-08-19T18:58:47;6.03;;;5.50;;
54959;SDS011;40860;51.710;8.736;2022-08-19T19:02:50;7.05;;;5.30;;
54959;SDS011;40860;51.710;8.736;2022-08-19T19:06:54;5.80;;;5.35;;
54959;SDS011;40860;51.710;8.736;2022-08-19T19:10:59;6.43;;;5.80;;
54959;SDS011;40860;51.710;8.736;2022-08-19T19:15:05;8.13;;;5.32;;
54959;SDS011;40860;51.710;8.736;2022-08-19T19:19:09;7.13;;;5.40;;
54959;SDS011;40860;51.710;8.736;2022-08-19T19:23:13;6.10;;;5.50;;
54959;SDS011;40860;51.710;8.736;2022-08-19T19:27:17;6.63;;;5.30;;
54959;SDS011;40860;51.710;8.736;2022-08-19T19:31:22;7.95;;;6.38;;
54959;SDS011;40860;51.710;8.736;2022-08-19T19:35:27;7.88;;;6.28;;
54959;SDS011;40860;51.710;8.736;2022-08-19T19:39:31;6.53;;;5.47;;
54959;SDS011;40860;51.710;8.736;2022-08-19T19:43:48;6.03;;;5.53;;
54959;SDS011;40860;51.710;8.736;2022-08-19T19:48:11;7.60;;;5.95;;
54959;SDS011;40860;51.710;8.736;2022-08-19T19:52:16;7.93;;;6.05;;
54959;SDS011;40860;51.710;8.736;2022-08-19T19:56:20;6.15;;;5.55;;
54959;SDS011;40860;51.710;8.736;2022-08-19T20:00:25;9.25;;;5.90;;
54959;SDS011;40860;51.710;8.736;2022-08-19T20:04:28;7.75;;;5.60;;
54959;SDS011;40860;51.710;8.736;2022-08-19T20:08:32;6.70;;;6.10;;
54959;SDS011;40860;51.710;8.736;2022-08-19T20:12:53;6.60;;;6.00;;
54959;SDS011;40860;51.710;8.736;2022-08-19T20:16:58;6.40;;;5.78;;
54959;SDS011;40860;51.710;8.736;2022-08-19T20:21:01;6.60;;;6.10;;
54959;SDS011;40860;51.710;8.736;2022-08-19T20:25:04;7.05;;;5.93;;
54959;SDS011;40860;51.710;8.736;2022-08-19T20:29:08;6.72;;;5.95;;
54959;SDS011;40860;51.710;8.736;2022-08-19T20:33:32;7.40;;;5.35;;
54959;SDS011;40860;51.710;8.736;2022-08-19T20:37:35;6.47;;;5.80;;
54959;SDS011;40860;51.710;8.736;2022-08-19T20:41:38;7.35;;;5.72;;
54959;SDS011;40860;51.710;8.736;2022-08-19T20:45:41;7.25;;;6.60;;
54959;SDS011;40860;51.710;8.736;2022-08-19T20:49:45;7.20;;;6.43;;
54959;SDS011;40860;51.710;8.736;2022-08-19T20:53:48;7.47;;;6.72;;
54959;SDS011;40860;51.710;8.736;2022-08-19T20:57:51;6.40;;;5.80;;
54959;SDS011;40860;51.710;8.736;2022-08-19T21:01:55;8.02;;;6.03;;
54959;SDS011;40860;51.710;8.736;2022-08-19T21:05:59;7.40;;;5.88;;
54959;SDS011;40860;51.710;8.736;2022-08-19T21:10:02;7.00;;;5.97;;
54959;SDS011;40860;51.710;8.736;2022-08-19T21:14:07;6.43;;;5.82;;
54959;SDS011;40860;51.710;8.736;2022-08-19T21:18:10;11.43;;;6.13;;
54959;SDS011;40860;51.710;8.736;2022-08-19T21:22:17;7.25;;;6.55;;
54959;SDS011;40860;51.710;8.736;2022-08-19T21:26:20;8.63;;;7.00;;
54959;SDS011;40860;51.710;8.736;2022-08-19T21:30:22;10.40;;;7.15;;
54959;SDS011;40860;51.710;8.736;2022-08-19T21:34:25;10.18;;;8.52;;
54959;SDS011;40860;51.710;8.736;2022-08-19T21:38:29;9.60;;;8.27;;
54959;SDS011;40860;51.710;8.736;2022-08-19T21:42:33;10.90;;;8.30;;
54959;SDS011;40860;51.710;8.736;2022-08-19T21:46:36;9.38;;;8.48;;
54959;SDS011;40860;51.710;8.736;2022-08-19T21:50:39;8.02;;;7.22;;
54959;SDS011;40860;51.710;8.736;2022-08-19T21:54:43;8.13;;;7.32;;
54959;SDS011;40860;51.710;8.736;2022-08-19T21:58:46;9.45;;;7.90;;
54959;SDS011;40860;51.710;8.736;2022-08-19T22:02:48;10.70;;;8.02;;
54959;SDS011;40860;51.710;8.736;2022-08-19T22:06:52;10.73;;;7.75;;
54959;SDS011;40860;51.710;8.736;2022-08-19T22:10:56;10.60;;;9.32;;
54959;SDS011;40860;51.710;8.736;2022-08-19T22:15:01;13.35;;;8.60;;
54959;SDS011;40860;51.710;8.736;2022-08-19T22:19:06;14.23;;;9.90;;
54959;SDS011;40860;51.710;8.736;2022-08-19T22:23:09;10.65;;;8.68;;
54959;SDS011;40860;51.710;8.736;2022-08-19T22:27:13;11.65;;;8.52;;
54959;SDS011;40860;51.710;8.736;2022-08-19T22:31:16;10.52;;;8.95;;
54959;SDS011;40860;51.710;8.736;2022-08-19T22:35:21;9.77;;;8.77;;
54959;SDS011;40860;51.710;8.736;2022-08-19T22:39:25;24.40;;;9.85;;
54959;SDS011;40860;51.710;8.736;2022-08-19T22:43:30;11.45;;;10.30;;
54959;SDS011;40860;51.710;8.736;2022-08-19T22:47:34;14.73;;;10.32;;
54959;SDS011;40860;51.710;8.736;2022-08-19T22:51:39;12.98;;;11.02;;
54959;SDS011;40860;51.710;8.736;2022-08-19T22:56:00;13.43;;;10.23;;
54959;SDS011;40860;51.710;8.736;2022-08-19T23:00:05;13.07;;;11.73;;
54959;SDS011;40860;51.710;8.736;2022-08-19T23:04:11;15.48;;;11.57;;
54959;SDS011;40860;51.710;8.736;2022-08-19T23:08:14;16.15;;;12.38;;
54959;SDS011;40860;51.710;8.736;2022-08-19T23:12:27;13.55;;;12.15;;
54959;SDS011;40860;51.710;8.736;2022-08-19T23:16:33;14.25;;;12.75;;
54959;SDS011;40860;51.710;8.736;2022-08-19T23:20:37;17.27;;;12.88;;
54959;SDS011;40860;51.710;8.736;2022-08-19T23:24:40;15.40;;;13.20;;
54959;SDS011;40860;51.710;8.736;2022-08-19T23:28:43;14.45;;;12.77;;
54959;SDS011;40860;51.710;8.736;2022-08-19T23:33:06;15.95;;;14.30;;
54959;SDS011;40860;51.710;8.736;2022-08-19T23:37:18;15.73;;;14.07;;
54959;SDS011;40860;51.710;8.736;2022-08-19T23:41:21;20.45;;;14.68;;
54959;SDS011;40860;51.710;8.736;2022-08-19T23:45:27;17.90;;;15.48;;
54959;SDS011;40860;51.710;8.736;2022-08-19T23:49:35;19.77;;;14.45;;
54959;SDS011;40860;51.710;8.736;2022-08-19T23:53:38;19.63;;;16.15;;
54959;SDS011;40860;51.710;8.736;2022-08-19T23:57:42;19.00;;;16.85;;
